Terminal Aerodrome Forecast
Issued by NWS Knoxville/Tri Cities, TN

Home | Current Version | Previous Version | Text Only | Print | Product List | Glossary On
Versions: 1 2 3 4 5 6 7 8 9 10 11 12 13 14 15 16 17 18 19 20 21
000
FTUS44 KMRX 281134
TAFCHA
TAF
KCHA 281134Z 2812/2912 00000KT 3SM BR SCT003 BKN060
      TEMPO 2812/2813 1/4SM FG VV002
     FM281330 VRB04KT 5SM BR SCT005 OVC015
     FM281600 32005KT P6SM OVC020
     FM281900 35006KT P6SM BKN035
     FM282200 36004KT P6SM FEW040
     FM290900 02003KT 3SM BR SCT002=

USA.gov is the U.S. government's official web portal to all federal, state and local government web resources and services.